createdAt,value
2018-04-16T00:01:21.155Z,99.90
2018-04-16T00:03:56.014Z,99.90
2018-04-16T00:06:31.139Z,99.90
2018-04-16T00:09:06.252Z,99.90
2018-04-16T00:11:40.485Z,99.90
2018-04-16T00:14:15.284Z,99.90
2018-04-16T00:16:49.126Z,99.90
2018-04-16T00:19:23.229Z,99.90
2018-04-16T00:21:57.946Z,99.90
2018-04-16T00:24:32.596Z,99.90
2018-04-16T00:27:07.809Z,99.90
2018-04-16T00:29:42.453Z,99.90
2018-04-16T00:32:22.065Z,99.90
2018-04-16T00:35:01.198Z,99.90
2018-04-16T00:37:41.770Z,99.90
2018-04-16T00:54:10.871Z,99.90
2018-04-16T00:56:51.098Z,99.90
2018-04-16T00:59:31.362Z,99.90
2018-04-16T01:02:11.284Z,99.90
2018-04-16T01:04:50.952Z,99.90
2018-04-16T01:07:31.208Z,99.90
2018-04-16T01:10:11.787Z,99.90
2018-04-16T01:12:51.326Z,99.90
2018-04-16T01:15:30.748Z,99.90
2018-04-16T01:18:10.457Z,99.90
2018-04-16T01:20:49.626Z,99.90
2018-04-16T01:23:29.791Z,99.90
2018-04-16T01:26:09.741Z,99.90
2018-04-16T01:28:49.179Z,99.90
2018-04-16T01:31:28.618Z,99.90
2018-04-16T01:47:36.501Z,99.90
2018-04-16T01:50:16.847Z,99.90
2018-04-16T01:52:57.299Z,99.90
2018-04-16T01:55:36.962Z,99.90
2018-04-16T01:58:17.214Z,99.90
2018-04-16T02:00:57.364Z,99.90
2018-04-16T02:03:36.812Z,99.90
2018-04-16T02:06:17.002Z,99.90
2018-04-16T02:08:56.376Z,99.90
2018-04-16T02:11:36.556Z,99.90
2018-04-16T02:14:15.972Z,99.90
2018-04-16T02:16:56.333Z,99.90
2018-04-16T02:19:35.958Z,99.90
2018-04-16T02:22:16.119Z,99.90
2018-04-16T02:24:56.356Z,99.90
2018-04-16T02:27:37.562Z,99.90
2018-04-16T02:30:18.127Z,99.90
2018-04-16T02:46:29.910Z,99.90
2018-04-16T02:49:09.670Z,99.90
2018-04-16T02:51:49.633Z,99.90
2018-04-16T02:54:28.850Z,99.90
2018-04-16T02:57:08.367Z,99.90
2018-04-16T02:59:48.805Z,99.90
2018-04-16T03:02:29.050Z,99.90
2018-04-16T03:05:09.508Z,99.90
2018-04-16T03:07:49.675Z,99.90
2018-04-16T03:10:29.238Z,99.90
2018-04-16T03:13:08.647Z,99.90
2018-04-16T03:15:49.123Z,99.90
2018-04-16T03:18:28.552Z,99.90
2018-04-16T03:21:08.227Z,99.90
2018-04-16T03:23:48.259Z,99.90
2018-04-16T03:26:27.709Z,99.90
2018-04-16T03:29:07.706Z,99.90
2018-04-16T03:31:48.157Z,99.90
2018-04-16T03:34:28.147Z,99.90
2018-04-16T03:37:07.600Z,99.90
2018-04-16T03:39:47.954Z,99.90
2018-04-16T03:42:27.804Z,99.90
2018-04-16T03:45:08.031Z,99.90
2018-04-16T03:47:48.083Z,99.90
2018-04-16T03:50:28.555Z,99.90
2018-04-16T03:53:08.267Z,99.90
2018-04-16T03:55:47.034Z,99.90
2018-04-16T03:58:20.948Z,99.90
2018-04-16T04:00:55.124Z,99.90
2018-04-16T04:03:29.570Z,99.90
2018-04-16T04:06:04.089Z,99.90
2018-04-16T04:08:39.313Z,99.90
2018-04-16T04:11:14.962Z,99.90
2018-04-16T04:13:49.389Z,99.90
2018-04-16T04:16:23.508Z,99.90
2018-04-16T04:18:57.425Z,99.90
2018-04-16T04:21:31.118Z,99.90
2018-04-16T04:24:17.810Z,99.90
2018-04-16T04:27:04.410Z,99.90
2018-04-16T04:29:50.815Z,99.90
2018-04-16T04:32:24.516Z,99.90
2018-04-16T04:34:59.149Z,99.90
2018-04-16T04:37:33.892Z,99.90
2018-04-16T04:40:08.789Z,99.90
2018-04-16T04:42:42.595Z,99.90
2018-04-16T04:45:16.467Z,99.90
2018-04-16T04:47:51.536Z,99.90
2018-04-16T04:50:25.756Z,99.90
2018-04-16T04:52:59.657Z,99.90
2018-04-16T04:55:33.376Z,99.90
2018-04-16T04:58:09.068Z,99.90
2018-04-16T05:00:43.425Z,99.90
2018-04-16T05:03:17.231Z,99.90
2018-04-16T05:05:50.834Z,99.90
2018-04-16T05:08:25.829Z,99.90
2018-04-16T05:11:00.492Z,99.90
2018-04-16T05:13:35.231Z,99.90
2018-04-16T05:16:09.147Z,99.90
2018-04-16T05:18:43.930Z,99.90
2018-04-16T05:21:19.191Z,99.90
2018-04-16T05:23:53.910Z,99.90
2018-04-16T05:26:27.735Z,99.90
2018-04-16T05:29:01.843Z,99.90
2018-04-16T05:31:35.925Z,99.90
2018-04-16T05:34:10.383Z,99.90
2018-04-16T05:36:44.395Z,99.90
2018-04-16T05:39:18.600Z,99.90
2018-04-16T05:41:53.327Z,99.90
2018-04-16T05:44:28.060Z,99.90
2018-04-16T05:47:01.831Z,99.90
2018-04-16T05:49:36.646Z,99.90
2018-04-16T05:52:10.183Z,99.90
2018-04-16T05:54:45.127Z,99.90
2018-04-16T05:57:18.824Z,99.90
2018-04-16T05:59:52.562Z,99.90
2018-04-16T06:02:26.330Z,99.90
2018-04-16T06:05:00.204Z,99.90
2018-04-16T06:07:35.988Z,99.90
2018-04-16T06:10:10.097Z,99.90
2018-04-16T06:12:43.903Z,99.90
2018-04-16T06:15:18.014Z,99.90
2018-04-16T06:17:51.544Z,99.90
2018-04-16T06:20:26.214Z,99.90
2018-04-16T06:23:00.012Z,99.90
2018-04-16T06:25:34.539Z,99.90
2018-04-16T06:28:08.672Z,99.90
2018-04-16T06:30:42.667Z,99.90
2018-04-16T06:33:18.614Z,99.90
2018-04-16T06:35:53.155Z,99.90
2018-04-16T06:38:27.709Z,99.90
2018-04-16T06:41:02.098Z,99.90
2018-04-16T06:43:38.943Z,99.90
2018-04-16T06:46:13.299Z,99.90
2018-04-16T06:48:48.124Z,99.90
2018-04-16T06:51:23.144Z,99.90
2018-04-16T06:53:56.996Z,99.90
2018-04-16T06:56:31.667Z,99.90
2018-04-16T06:59:05.890Z,99.90
2018-04-16T07:01:39.781Z,99.90
2018-04-16T07:04:13.686Z,99.90
2018-04-16T07:06:48.230Z,99.90
2018-04-16T07:09:23.609Z,99.90
2018-04-16T07:11:57.379Z,99.90
2018-04-16T07:14:32.090Z,99.90
2018-04-16T07:17:07.222Z,99.90
2018-04-16T07:19:41.121Z,99.90
2018-04-16T07:22:16.055Z,99.90
2018-04-16T07:24:49.682Z,99.90
2018-04-16T07:27:24.316Z,99.90
2018-04-16T07:29:57.999Z,99.90
2018-04-16T07:32:31.718Z,99.90
2018-04-16T07:35:05.814Z,99.90
2018-04-16T07:37:40.416Z,99.90
2018-04-16T07:40:15.241Z,99.90
2018-04-16T07:42:48.867Z,99.90
2018-04-16T07:45:23.441Z,99.90
2018-04-16T07:47:57.175Z,99.90
2018-04-16T07:50:31.711Z,99.90
2018-04-16T07:53:06.525Z,99.90
2018-04-16T07:55:40.034Z,99.90
2018-04-16T07:58:14.767Z,99.90
2018-04-16T08:00:49.391Z,99.90
2018-04-16T08:03:23.268Z,99.90
2018-04-16T08:05:57.004Z,99.90
2018-04-16T08:08:31.514Z,99.90
2018-04-16T08:11:05.457Z,99.90
2018-04-16T08:13:39.123Z,99.90
2018-04-16T08:16:13.035Z,99.90
2018-04-16T08:18:47.631Z,99.90
2018-04-16T08:21:22.159Z,99.90
2018-04-16T08:23:56.707Z,99.90
2018-04-16T08:26:31.275Z,99.90
2018-04-16T08:29:06.031Z,99.90
2018-04-16T08:31:39.730Z,99.90
2018-04-16T08:34:13.533Z,99.90
2018-04-16T08:36:47.443Z,99.90
2018-04-16T08:39:21.638Z,99.90
2018-04-16T08:41:56.407Z,99.90
2018-04-16T08:44:31.006Z,99.90
2018-04-16T08:47:06.044Z,99.90
2018-04-16T08:49:39.740Z,99.90
2018-04-16T08:52:13.557Z,99.90
2018-04-16T08:54:47.253Z,99.90
2018-04-16T08:57:21.983Z,99.90
2018-04-16T08:59:56.624Z,99.90
2018-04-16T09:02:30.407Z,99.90
2018-04-16T09:05:05.441Z,99.90
2018-04-16T09:07:38.954Z,99.90
2018-04-16T09:10:13.266Z,99.90
2018-04-16T09:12:47.264Z,99.90
2018-04-16T09:15:20.892Z,99.90
2018-04-16T09:17:55.294Z,99.90
2018-04-16T09:20:29.103Z,99.90
2018-04-16T09:23:03.020Z,99.90
2018-04-16T09:25:38.551Z,98.70
2018-04-16T09:28:13.387Z,98.40
2018-04-16T09:30:49.131Z,98.40
2018-04-16T09:33:22.840Z,98.40
2018-04-16T09:35:56.650Z,97.30
2018-04-16T09:38:30.343Z,96.00
2018-04-16T09:41:05.143Z,95.10
2018-04-16T09:43:39.464Z,94.60
2018-04-16T09:46:13.816Z,94.60
2018-04-16T09:48:48.671Z,92.70
2018-04-16T09:51:22.539Z,92.60
2018-04-16T09:53:56.176Z,93.30
2018-04-16T09:56:30.542Z,93.20
2018-04-16T09:59:05.258Z,93.10
2018-04-16T10:01:39.578Z,92.90
2018-04-16T10:04:13.715Z,93.50
2018-04-16T10:06:48.235Z,92.60
2018-04-16T10:09:21.919Z,92.60
2018-04-16T10:11:56.341Z,91.40
2018-04-16T10:14:30.043Z,91.40
2018-04-16T10:17:04.807Z,91.10
2018-04-16T10:19:38.773Z,91.00
2018-04-16T10:22:12.291Z,92.20
2018-04-16T10:24:47.941Z,90.50
2018-04-16T10:27:22.653Z,91.30
2018-04-16T10:29:57.490Z,90.40
2018-04-16T10:32:31.276Z,90.30
2018-04-16T10:35:05.194Z,90.80
2018-04-16T10:37:38.787Z,90.20
2018-04-16T10:40:12.701Z,84.20
2018-04-16T10:42:46.811Z,87.10
2018-04-16T10:45:21.546Z,87.80
2018-04-16T10:47:55.363Z,87.70
2018-04-16T10:50:29.051Z,85.30
2018-04-16T10:53:02.837Z,88.50
2018-04-16T10:55:37.686Z,83.70
2018-04-16T10:58:11.670Z,84.50
2018-04-16T11:00:45.915Z,79.90
2018-04-16T11:03:20.090Z,79.80
2018-04-16T11:05:55.438Z,82.20
2018-04-16T11:08:29.972Z,79.40
2018-04-16T11:11:04.802Z,80.20
2018-04-16T11:13:40.446Z,81.70
2018-04-16T11:16:14.656Z,81.60
2018-04-16T11:18:48.892Z,81.10
2018-04-16T11:21:24.046Z,82.00
2018-04-16T11:23:58.520Z,81.90
2018-04-16T11:26:32.364Z,81.90
2018-04-16T11:29:07.021Z,83.00
2018-04-16T11:31:42.393Z,85.10
2018-04-16T11:34:16.410Z,85.10
2018-04-16T11:36:50.950Z,84.70
2018-04-16T11:39:25.190Z,84.90
2018-04-16T11:41:59.083Z,87.90
2018-04-16T11:44:33.875Z,87.80
2018-04-16T11:47:08.064Z,88.40
2018-04-16T11:49:41.667Z,86.70
2018-04-16T11:52:15.995Z,87.20
2018-04-16T11:54:49.940Z,87.90
2018-04-16T11:57:23.615Z,88.30
2018-04-16T11:59:57.538Z,88.40
2018-04-16T12:02:31.118Z,88.20
2018-04-16T12:05:05.633Z,86.10
2018-04-16T12:07:40.156Z,87.60
2018-04-16T12:10:15.010Z,86.80
2018-04-16T12:12:49.521Z,87.00
2018-04-16T12:15:25.069Z,86.50
2018-04-16T12:17:58.869Z,86.30
2018-04-16T12:20:32.679Z,87.70
2018-04-16T12:23:06.301Z,86.30
2018-04-16T12:25:44.598Z,87.50
2018-04-16T12:28:18.640Z,87.40
2018-04-16T12:30:52.600Z,87.50
2018-04-16T12:33:27.828Z,83.30
2018-04-16T12:36:01.753Z,83.20
2018-04-16T12:38:37.923Z,85.80
2018-04-16T12:41:23.296Z,85.70
2018-04-16T12:43:58.263Z,81.60
2018-04-16T12:46:31.930Z,82.10
2018-04-16T12:49:06.078Z,83.20
2018-04-16T12:51:40.441Z,81.60
2018-04-16T12:54:14.914Z,80.70
2018-04-16T12:56:48.644Z,84.10
2018-04-16T12:59:22.476Z,81.30
2018-04-16T13:01:56.981Z,80.00
2018-04-16T13:04:30.870Z,80.00
2018-04-16T13:07:04.705Z,77.60
2018-04-16T13:09:39.346Z,81.80
2018-04-16T13:12:13.635Z,80.90
2018-04-16T13:14:48.857Z,81.10
2018-04-16T13:17:22.683Z,80.40
2018-04-16T13:19:57.325Z,84.00
2018-04-16T13:22:31.007Z,84.30
2018-04-16T13:25:05.553Z,83.10
2018-04-16T13:27:40.071Z,83.10
2018-04-16T13:30:14.790Z,82.00
2018-04-16T13:32:48.909Z,82.00
2018-04-16T13:35:22.510Z,84.10
2018-04-16T13:37:57.321Z,85.50
2018-04-16T13:40:31.384Z,85.40
2018-04-16T13:43:06.600Z,86.30
2018-04-16T13:45:40.459Z,86.30
2018-04-16T13:48:14.188Z,87.30
2018-04-16T13:50:49.304Z,89.00
2018-04-16T13:53:24.139Z,85.60
2018-04-16T13:55:59.058Z,87.20
2018-04-16T13:58:33.732Z,85.20
2018-04-16T14:01:07.725Z,85.00
2018-04-16T14:03:41.399Z,88.40
2018-04-16T14:06:16.047Z,85.70
2018-04-16T14:08:50.340Z,85.40
2018-04-16T14:11:24.900Z,87.30
2018-04-16T14:13:59.487Z,87.10
2018-04-16T14:16:33.240Z,87.10
2018-04-16T14:19:07.811Z,90.60
2018-04-16T14:21:41.713Z,88.80
2018-04-16T14:24:17.138Z,86.10
2018-04-16T14:26:51.062Z,86.00
2018-04-16T14:29:26.918Z,77.00
2018-04-16T14:32:01.333Z,76.10
2018-04-16T14:34:35.675Z,76.00
2018-04-16T14:37:09.396Z,56.10
2018-04-16T14:39:43.499Z,52.60
2018-04-16T14:42:17.763Z,51.00
2018-04-16T14:44:52.222Z,55.30
2018-04-16T14:47:26.968Z,57.00
2018-04-16T14:50:01.487Z,66.00
2018-04-16T14:52:36.599Z,71.30
2018-04-16T14:55:10.411Z,71.20
2018-04-16T14:57:45.022Z,73.70
2018-04-16T15:00:19.438Z,71.60
2018-04-16T15:02:54.378Z,71.60
2018-04-16T15:05:28.575Z,66.90
2018-04-16T15:08:08.171Z,64.80
2018-04-16T15:10:42.124Z,64.30
2018-04-16T15:13:16.876Z,64.20
2018-04-16T15:15:50.470Z,64.10
2018-04-16T15:18:25.312Z,51.70
2018-04-16T15:20:59.614Z,51.50
2018-04-16T15:23:34.841Z,48.70
2018-04-16T15:26:09.565Z,53.40
2018-04-16T15:28:44.107Z,54.80
2018-04-16T15:31:18.495Z,54.70
2018-04-16T15:33:51.994Z,55.90
2018-04-16T15:36:26.531Z,55.90
2018-04-16T15:39:01.047Z,53.00
2018-04-16T15:41:37.710Z,56.40
2018-04-16T15:44:12.229Z,58.80
2018-04-16T15:46:47.496Z,60.60
2018-04-16T15:49:21.359Z,60.60
2018-04-16T15:51:56.837Z,63.60
2018-04-16T15:54:31.623Z,63.30
2018-04-16T15:57:06.679Z,67.00
2018-04-16T15:59:40.792Z,67.10
2018-04-16T16:02:16.418Z,63.50
2018-04-16T16:04:50.851Z,65.10
2018-04-16T16:07:24.451Z,65.40
2018-04-16T16:09:59.840Z,62.60
2018-04-16T16:12:34.341Z,64.40
2018-04-16T16:15:09.300Z,64.40
2018-04-16T16:17:44.417Z,59.30
2018-04-16T16:20:19.020Z,61.00
2018-04-16T16:22:52.750Z,60.90
2018-04-16T16:25:27.490Z,62.10
2018-04-16T16:31:03.141Z,68.00
2018-04-16T16:33:38.911Z,68.50
2018-04-16T16:36:12.555Z,68.50
2018-04-16T16:38:46.537Z,70.50
2018-04-16T16:41:20.568Z,72.80
2018-04-16T16:43:54.957Z,75.40
2018-04-16T16:49:15.082Z,75.10
2018-04-16T16:51:51.711Z,76.60
2018-04-16T16:54:28.484Z,76.50
2018-04-16T16:57:02.271Z,78.10
2018-04-16T16:59:37.173Z,80.00
2018-04-16T17:02:11.522Z,81.40
2018-04-16T17:04:46.184Z,81.40
2018-04-16T17:07:20.354Z,82.00
2018-04-16T17:09:53.930Z,83.50
2018-04-16T17:12:28.648Z,82.70
2018-04-16T17:15:03.422Z,85.40
2018-04-16T17:17:37.180Z,85.40
2018-04-16T17:20:10.827Z,84.40
2018-04-16T17:22:45.331Z,85.10
2018-04-16T17:25:19.973Z,85.10
2018-04-16T17:27:53.568Z,85.10
2018-04-16T17:30:28.055Z,86.70
2018-04-16T17:33:01.963Z,86.70
2018-04-16T17:35:36.661Z,87.10
2018-04-16T17:38:10.299Z,87.10
2018-04-16T17:40:45.183Z,86.60
2018-04-16T17:43:19.243Z,87.30
2018-04-16T17:45:53.063Z,88.40
2018-04-16T17:48:27.752Z,89.70
2018-04-16T17:51:01.560Z,89.70
2018-04-16T17:53:39.874Z,90.00
2018-04-16T17:56:16.655Z,90.10
2018-04-16T17:58:51.465Z,90.90
2018-04-16T18:01:27.996Z,90.90
2018-04-16T18:04:07.144Z,91.40
2018-04-16T18:06:41.743Z,91.80
2018-04-16T18:09:17.294Z,92.40
2018-04-16T18:11:52.604Z,93.00
2018-04-16T18:14:27.633Z,93.00
2018-04-16T18:17:01.577Z,93.80
2018-04-16T18:19:36.769Z,94.90
2018-04-16T18:22:11.184Z,95.10
2018-04-16T18:24:46.139Z,95.80
2018-04-16T18:27:20.625Z,96.20
2018-04-16T18:29:55.779Z,96.70
2018-04-16T18:32:30.045Z,96.60
2018-04-16T18:35:03.822Z,97.00
2018-04-16T18:37:40.179Z,97.10
2018-04-16T18:40:15.148Z,96.90
2018-04-16T18:42:49.943Z,97.90
2018-04-16T18:45:23.809Z,97.90
2018-04-16T18:47:58.442Z,98.40
2018-04-16T18:50:32.655Z,98.70
2018-04-16T18:53:06.857Z,98.90
2018-04-16T18:55:41.617Z,99.80
2018-04-16T18:58:16.049Z,99.90
2018-04-16T19:00:50.388Z,99.90
2018-04-16T19:03:24.427Z,99.80
2018-04-16T19:05:59.905Z,99.90
2018-04-16T19:08:34.406Z,99.90
2018-04-16T19:11:09.370Z,99.90
2018-04-16T19:13:44.912Z,99.90
2018-04-16T19:16:20.128Z,99.90
2018-04-16T19:18:55.965Z,99.90
2018-04-16T19:21:36.816Z,99.90
2018-04-16T19:24:11.243Z,99.90
2018-04-16T19:26:51.551Z,99.90
2018-04-16T19:29:26.311Z,99.90
2018-04-16T19:32:03.209Z,99.90
2018-04-16T19:34:44.321Z,99.90
2018-04-16T19:37:19.601Z,99.90
2018-04-16T19:39:55.445Z,99.90
2018-04-16T19:42:36.383Z,99.90
2018-04-16T19:45:10.695Z,99.90
2018-04-16T19:47:45.513Z,99.90
2018-04-16T19:50:19.515Z,99.90
2018-04-16T19:52:54.230Z,99.90
2018-04-16T20:08:50.775Z,99.90
2018-04-16T20:11:24.792Z,99.90
2018-04-16T20:13:59.098Z,99.90
2018-04-16T20:16:33.627Z,99.90
2018-04-16T20:19:08.383Z,99.90
2018-04-16T20:21:42.743Z,99.90
2018-04-16T20:24:18.575Z,99.90
2018-04-16T20:26:53.140Z,99.90
2018-04-16T20:29:27.274Z,99.90
2018-04-16T20:32:01.139Z,99.90
2018-04-16T20:34:36.225Z,99.90
2018-04-16T20:37:11.305Z,99.90
2018-04-16T20:39:46.642Z,99.90
2018-04-16T20:42:21.682Z,99.90
2018-04-16T20:44:55.802Z,99.90
2018-04-16T20:47:31.141Z,99.90
2018-04-16T20:50:05.844Z,99.90
2018-04-16T20:52:40.502Z,99.90
2018-04-16T20:55:14.715Z,99.90
2018-04-16T20:57:48.875Z,99.90
2018-04-16T21:00:24.623Z,99.90
2018-04-16T21:03:00.065Z,99.90
2018-04-16T21:05:34.830Z,99.90
2018-04-16T21:08:09.846Z,99.90
2018-04-16T21:10:44.895Z,99.90
2018-04-16T21:13:19.475Z,99.90
2018-04-16T21:15:54.681Z,99.90
2018-04-16T21:18:29.408Z,99.90
2018-04-16T21:21:04.212Z,99.90
2018-04-16T21:23:38.854Z,99.90
2018-04-16T21:26:13.868Z,99.90
2018-04-16T21:28:50.135Z,99.90
2018-04-16T21:31:23.937Z,99.90
2018-04-16T21:33:59.689Z,99.90
2018-04-16T21:36:33.816Z,99.90
2018-04-16T21:39:09.448Z,99.90
2018-04-16T21:41:43.146Z,99.90
2018-04-16T21:44:18.580Z,99.90
2018-04-16T21:46:53.118Z,99.90
2018-04-16T21:49:28.774Z,99.90
2018-04-16T21:52:04.398Z,99.90
2018-04-16T21:54:39.194Z,99.90
2018-04-16T21:57:13.042Z,99.90
2018-04-16T21:59:48.405Z,99.90
2018-04-16T22:02:22.702Z,99.90
2018-04-16T22:04:56.565Z,99.90
2018-04-16T22:07:31.206Z,99.90
2018-04-16T22:10:05.852Z,99.90
2018-04-16T22:12:40.692Z,99.90
2018-04-16T22:15:14.404Z,99.90
2018-04-16T22:17:49.325Z,99.90
2018-04-16T22:20:24.320Z,99.90
2018-04-16T22:22:59.701Z,99.90
2018-04-16T22:25:34.015Z,99.90
2018-04-16T22:28:10.443Z,99.90
2018-04-16T22:30:45.814Z,99.90
2018-04-16T22:33:19.660Z,99.90
2018-04-16T22:35:54.532Z,99.90
2018-04-16T22:38:29.976Z,99.90
2018-04-16T22:41:04.803Z,99.90
2018-04-16T22:43:39.746Z,99.90
2018-04-16T22:46:16.331Z,99.90
2018-04-16T22:48:50.935Z,99.90
2018-04-16T22:51:25.447Z,99.90
2018-04-16T22:53:59.283Z,99.90
2018-04-16T22:56:33.578Z,99.90
2018-04-16T22:59:09.139Z,99.90
2018-04-16T23:01:43.939Z,99.90
2018-04-16T23:04:17.960Z,99.90
2018-04-16T23:06:51.974Z,99.90
2018-04-16T23:09:27.261Z,99.90
2018-04-16T23:12:01.633Z,99.90
2018-04-16T23:14:36.985Z,99.90
2018-04-16T23:17:10.967Z,99.90
2018-04-16T23:19:47.035Z,99.90
2018-04-16T23:22:21.430Z,99.90
2018-04-16T23:24:56.004Z,99.90
2018-04-16T23:27:31.038Z,99.90
2018-04-16T23:30:07.260Z,99.90
2018-04-16T23:32:41.185Z,99.90
2018-04-16T23:35:16.181Z,99.90
2018-04-16T23:37:52.374Z,99.90
2018-04-16T23:40:28.473Z,99.90
2018-04-16T23:43:04.145Z,99.90
2018-04-16T23:45:40.051Z,99.90
2018-04-16T23:48:14.274Z,99.90
2018-04-16T23:50:48.885Z,99.90
2018-04-16T23:53:23.709Z,99.90
2018-04-16T23:55:59.044Z,99.90
2018-04-16T23:58:33.671Z,99.90
